sensor_id;sensor_type;location;lat;lon;timestamp;pressure;altitude;pressure_sealevel;temperature;humidity
47716;BME280;33476;50.984;3.538;2023-08-30T00:01:11;100961.69;;;19.11;51.21
47716;BME280;33476;50.984;3.538;2023-08-30T00:03:36;100961.81;;;19.09;51.29
47716;BME280;33476;50.984;3.538;2023-08-30T00:06:05;100954.84;;;19.08;51.42
47716;BME280;33476;50.984;3.538;2023-08-30T00:08:34;100943.53;;;19.06;51.74
47716;BME280;33476;50.984;3.538;2023-08-30T00:11:00;100940.19;;;19.04;51.68
47716;BME280;33476;50.984;3.538;2023-08-30T00:13:29;100936.81;;;19.02;51.99
47716;BME280;33476;50.984;3.538;2023-08-30T00:15:54;100938.38;;;19.04;51.75
47716;BME280;33476;50.984;3.538;2023-08-30T00:18:20;100931.28;;;19.05;51.85
47716;BME280;33476;50.984;3.538;2023-08-30T00:20:46;100922.50;;;19.04;51.74
47716;BME280;33476;50.984;3.538;2023-08-30T00:23:11;100912.28;;;19.00;51.90
47716;BME280;33476;50.984;3.538;2023-08-30T00:25:37;100921.19;;;18.99;52.05
47716;BME280;33476;50.984;3.538;2023-08-30T00:28:02;100914.91;;;19.00;52.47
47716;BME280;33476;50.984;3.538;2023-08-30T00:30:27;100917.69;;;18.98;52.35
47716;BME280;33476;50.984;3.538;2023-08-30T00:32:53;100905.44;;;18.97;52.33
47716;BME280;33476;50.984;3.538;2023-08-30T00:35:18;100907.38;;;18.95;52.53
47716;BME280;33476;50.984;3.538;2023-08-30T00:37:44;100898.59;;;18.84;53.03
47716;BME280;33476;50.984;3.538;2023-08-30T00:40:09;100896.09;;;18.82;52.92
47716;BME280;33476;50.984;3.538;2023-08-30T00:42:35;100894.03;;;18.86;53.27
47716;BME280;33476;50.984;3.538;2023-08-30T00:45:00;100893.94;;;18.87;53.20
47716;BME280;33476;50.984;3.538;2023-08-30T00:47:25;100895.00;;;18.85;53.38
47716;BME280;33476;50.984;3.538;2023-08-30T00:49:51;100887.91;;;18.85;53.51
47716;BME280;33476;50.984;3.538;2023-08-30T00:52:16;100894.03;;;18.86;53.17
47716;BME280;33476;50.984;3.538;2023-08-30T00:54:42;100889.34;;;18.89;53.36
47716;BME280;33476;50.984;3.538;2023-08-30T00:57:09;100888.72;;;18.86;53.36
47716;BME280;33476;50.984;3.538;2023-08-30T00:59:34;100891.28;;;18.87;53.70
47716;BME280;33476;50.984;3.538;2023-08-30T01:02:00;100879.72;;;18.88;53.36
47716;BME280;33476;50.984;3.538;2023-08-30T01:04:27;100887.28;;;18.93;53.40
47716;BME280;33476;50.984;3.538;2023-08-30T01:06:52;100878.63;;;18.91;53.74
47716;BME280;33476;50.984;3.538;2023-08-30T01:09:18;100882.88;;;18.82;54.01
47716;BME280;33476;50.984;3.538;2023-08-30T01:12:09;100883.47;;;18.74;54.05
47716;BME280;33476;50.984;3.538;2023-08-30T01:15:07;100869.28;;;18.75;54.10
47716;BME280;33476;50.984;3.538;2023-08-30T01:17:35;100867.94;;;18.81;53.80
47716;BME280;33476;50.984;3.538;2023-08-30T01:20:05;100872.63;;;18.77;54.10
47716;BME280;33476;50.984;3.538;2023-08-30T01:27:51;100868.56;;;18.73;54.20
47716;BME280;33476;50.984;3.538;2023-08-30T01:30:18;100858.97;;;18.72;54.24
47716;BME280;33476;50.984;3.538;2023-08-30T01:32:45;100859.19;;;18.69;54.66
47716;BME280;33476;50.984;3.538;2023-08-30T01:35:12;100861.97;;;18.68;54.48
47716;BME280;33476;50.984;3.538;2023-08-30T01:37:44;100860.41;;;18.65;54.68
47716;BME280;33476;50.984;3.538;2023-08-30T01:40:11;100853.56;;;18.63;54.90
47716;BME280;33476;50.984;3.538;2023-08-30T01:42:38;100847.41;;;18.62;54.90
47716;BME280;33476;50.984;3.538;2023-08-30T01:45:05;100847.06;;;18.67;54.76
47716;BME280;33476;50.984;3.538;2023-08-30T01:47:33;100856.81;;;18.66;54.80
47716;BME280;33476;50.984;3.538;2023-08-30T01:50:01;100854.63;;;18.60;54.99
47716;BME280;33476;50.984;3.538;2023-08-30T01:52:29;100852.94;;;18.59;55.16
47716;BME280;33476;50.984;3.538;2023-08-30T01:54:55;100857.13;;;18.62;55.31
47716;BME280;33476;50.984;3.538;2023-08-30T01:57:20;100851.84;;;18.62;55.46
47716;BME280;33476;50.984;3.538;2023-08-30T01:59:46;100852.09;;;18.59;55.80
47716;BME280;33476;50.984;3.538;2023-08-30T02:02:11;100848.50;;;18.60;55.73
47716;BME280;33476;50.984;3.538;2023-08-30T02:04:36;100848.25;;;18.63;55.70
47716;BME280;33476;50.984;3.538;2023-08-30T02:07:04;100853.06;;;18.69;55.94
47716;BME280;33476;50.984;3.538;2023-08-30T02:12:04;100843.44;;;18.68;56.94
47716;BME280;33476;50.984;3.538;2023-08-30T02:14:32;100838.00;;;18.80;56.10
47716;BME280;33476;50.984;3.538;2023-08-30T02:16:58;100840.88;;;18.77;56.79
47716;BME280;33476;50.984;3.538;2023-08-30T02:19:23;100843.09;;;18.72;57.42
47716;BME280;33476;50.984;3.538;2023-08-30T02:21:49;100835.84;;;18.74;57.70
47716;BME280;33476;50.984;3.538;2023-08-30T02:24:14;100837.53;;;18.75;57.77
47716;BME280;33476;50.984;3.538;2023-08-30T02:26:40;100825.28;;;18.74;57.99
47716;BME280;33476;50.984;3.538;2023-08-30T02:29:05;100825.28;;;18.74;58.34
47716;BME280;33476;50.984;3.538;2023-08-30T02:31:31;100827.66;;;18.77;58.77
47716;BME280;33476;50.984;3.538;2023-08-30T02:33:56;100825.00;;;18.77;58.86
47716;BME280;33476;50.984;3.538;2023-08-30T02:36:22;100816.50;;;18.74;59.09
47716;BME280;33476;50.984;3.538;2023-08-30T02:38:47;100813.84;;;18.74;59.23
47716;BME280;33476;50.984;3.538;2023-08-30T02:41:12;100814.56;;;18.76;59.38
47716;BME280;33476;50.984;3.538;2023-08-30T02:43:38;100809.03;;;18.79;59.66
47716;BME280;33476;50.984;3.538;2023-08-30T02:46:03;100805.91;;;18.74;60.06
47716;BME280;33476;50.984;3.538;2023-08-30T02:48:30;100801.59;;;18.73;59.94
47716;BME280;33476;50.984;3.538;2023-08-30T02:50:56;100794.38;;;18.75;60.10
47716;BME280;33476;50.984;3.538;2023-08-30T02:53:21;100796.31;;;18.73;60.52
47716;BME280;33476;50.984;3.538;2023-08-30T02:55:47;100783.31;;;18.70;60.87
47716;BME280;33476;50.984;3.538;2023-08-30T02:58:13;100782.38;;;18.71;61.22
47716;BME280;33476;50.984;3.538;2023-08-30T03:00:38;100778.41;;;18.65;61.57
47716;BME280;33476;50.984;3.538;2023-08-30T03:03:04;100779.59;;;18.61;62.14
47716;BME280;33476;50.984;3.538;2023-08-30T03:05:29;100764.69;;;18.60;62.50
47716;BME280;33476;50.984;3.538;2023-08-30T03:07:55;100761.81;;;18.52;62.96
47716;BME280;33476;50.984;3.538;2023-08-30T03:10:20;100758.88;;;18.45;63.53
47716;BME280;33476;50.984;3.538;2023-08-30T03:12:45;100754.91;;;18.40;63.72
47716;BME280;33476;50.984;3.538;2023-08-30T03:15:11;100750.72;;;18.37;63.73
47716;BME280;33476;50.984;3.538;2023-08-30T03:17:36;100749.00;;;18.36;63.58
47716;BME280;33476;50.984;3.538;2023-08-30T03:20:02;100739.75;;;18.42;63.71
47716;BME280;33476;50.984;3.538;2023-08-30T03:22:29;100739.38;;;18.46;63.50
47716;BME280;33476;50.984;3.538;2023-08-30T03:24:55;100735.63;;;18.49;63.67
47716;BME280;33476;50.984;3.538;2023-08-30T03:27:21;100726.88;;;18.48;64.04
47716;BME280;33476;50.984;3.538;2023-08-30T03:29:46;100730.13;;;18.41;64.37
47716;BME280;33476;50.984;3.538;2023-08-30T03:32:16;100725.13;;;18.38;64.44
47716;BME280;33476;50.984;3.538;2023-08-30T03:34:47;100718.72;;;18.40;64.24
47716;BME280;33476;50.984;3.538;2023-08-30T03:37:15;100718.59;;;18.42;64.39
47716;BME280;33476;50.984;3.538;2023-08-30T03:39:41;100722.69;;;18.46;64.28
47716;BME280;33476;50.984;3.538;2023-08-30T03:42:07;100718.47;;;18.43;64.19
47716;BME280;33476;50.984;3.538;2023-08-30T03:44:33;100712.94;;;18.46;64.63
47716;BME280;33476;50.984;3.538;2023-08-30T03:46:58;100700.56;;;18.47;64.96
47716;BME280;33476;50.984;3.538;2023-08-30T03:49:23;100694.88;;;18.51;64.83
47716;BME280;33476;50.984;3.538;2023-08-30T03:51:49;100696.31;;;18.56;64.41
47716;BME280;33476;50.984;3.538;2023-08-30T03:54:14;100690.63;;;18.60;64.55
47716;BME280;33476;50.984;3.538;2023-08-30T03:56:44;100684.06;;;18.55;64.85
47716;BME280;33476;50.984;3.538;2023-08-30T03:59:11;100682.38;;;18.53;64.94
47716;BME280;33476;50.984;3.538;2023-08-30T04:01:37;100674.19;;;18.57;65.24
47716;BME280;33476;50.984;3.538;2023-08-30T04:04:02;100673.56;;;18.53;65.31
47716;BME280;33476;50.984;3.538;2023-08-30T04:06:28;100677.09;;;18.53;65.53
47716;BME280;33476;50.984;3.538;2023-08-30T04:08:53;100673.72;;;18.51;65.20
47716;BME280;33476;50.984;3.538;2023-08-30T04:11:19;100662.91;;;18.55;65.07
47716;BME280;33476;50.984;3.538;2023-08-30T04:13:44;100668.19;;;18.55;65.36
47716;BME280;33476;50.984;3.538;2023-08-30T04:16:10;100666.88;;;18.49;65.62
47716;BME280;33476;50.984;3.538;2023-08-30T04:18:35;100664.59;;;18.44;65.74
47716;BME280;33476;50.984;3.538;2023-08-30T04:21:01;100655.72;;;18.45;65.55
47716;BME280;33476;50.984;3.538;2023-08-30T04:23:28;100661.13;;;18.44;65.73
47716;BME280;33476;50.984;3.538;2023-08-30T04:25:53;100657.91;;;18.40;65.98
47716;BME280;33476;50.984;3.538;2023-08-30T04:28:19;100652.88;;;18.37;66.19
47716;BME280;33476;50.984;3.538;2023-08-30T04:30:44;100640.09;;;18.42;66.04
47716;BME280;33476;50.984;3.538;2023-08-30T04:33:10;100645.16;;;18.45;65.98
47716;BME280;33476;50.984;3.538;2023-08-30T04:35:35;100637.22;;;18.45;65.82
47716;BME280;33476;50.984;3.538;2023-08-30T04:38:01;100627.59;;;18.44;65.96
47716;BME280;33476;50.984;3.538;2023-08-30T04:40:28;100631.34;;;18.42;66.03
47716;BME280;33476;50.984;3.538;2023-08-30T04:42:55;100629.28;;;18.45;65.80
47716;BME280;33476;50.984;3.538;2023-08-30T04:45:21;100615.19;;;18.45;65.75
47716;BME280;33476;50.984;3.538;2023-08-30T04:47:46;100621.78;;;18.50;65.59
47716;BME280;33476;50.984;3.538;2023-08-30T04:50:13;100624.06;;;18.55;65.18
47716;BME280;33476;50.984;3.538;2023-08-30T04:52:38;100621.53;;;18.53;65.23
47716;BME280;33476;50.984;3.538;2023-08-30T04:55:04;100621.91;;;18.49;65.76
47716;BME280;33476;50.984;3.538;2023-08-30T04:57:29;100623.13;;;18.45;65.92
47716;BME280;33476;50.984;3.538;2023-08-30T04:59:55;100623.41;;;18.42;66.17
47716;BME280;33476;50.984;3.538;2023-08-30T05:02:21;100631.34;;;18.42;66.26
47716;BME280;33476;50.984;3.538;2023-08-30T05:04:46;100630.50;;;18.41;66.29
47716;BME280;33476;50.984;3.538;2023-08-30T05:07:12;100627.84;;;18.41;66.46
47716;BME280;33476;50.984;3.538;2023-08-30T05:09:38;100639.53;;;18.39;66.78
47716;BME280;33476;50.984;3.538;2023-08-30T05:12:06;100641.72;;;18.34;67.08
47716;BME280;33476;50.984;3.538;2023-08-30T05:14:31;100634.03;;;18.31;67.22
47716;BME280;33476;50.984;3.538;2023-08-30T05:16:57;100646.53;;;18.29;67.39
47716;BME280;33476;50.984;3.538;2023-08-30T05:19:22;100642.81;;;18.31;67.29
47716;BME280;33476;50.984;3.538;2023-08-30T05:21:47;100644.63;;;18.31;67.25
47716;BME280;33476;50.984;3.538;2023-08-30T05:24:16;100646.03;;;18.35;67.42
47716;BME280;33476;50.984;3.538;2023-08-30T05:26:42;100639.19;;;18.32;67.34
47716;BME280;33476;50.984;3.538;2023-08-30T05:29:07;100642.53;;;18.34;67.28
47716;BME280;33476;50.984;3.538;2023-08-30T05:31:32;100640.59;;;18.36;67.65
47716;BME280;33476;50.984;3.538;2023-08-30T05:33:58;100644.22;;;18.35;67.53
47716;BME280;33476;50.984;3.538;2023-08-30T05:36:23;100640.22;;;18.41;67.34
47716;BME280;33476;50.984;3.538;2023-08-30T05:38:48;100639.97;;;18.44;67.19
47716;BME280;33476;50.984;3.538;2023-08-30T05:41:14;100631.06;;;18.45;67.10
47716;BME280;33476;50.984;3.538;2023-08-30T05:43:39;100634.69;;;18.44;67.33
47716;BME280;33476;50.984;3.538;2023-08-30T05:46:04;100633.00;;;18.43;67.79
47716;BME280;33476;50.984;3.538;2023-08-30T05:48:30;100628.94;;;18.39;67.78
47716;BME280;33476;50.984;3.538;2023-08-30T05:50:56;100636.88;;;18.39;67.74
47716;BME280;33476;50.984;3.538;2023-08-30T05:53:22;100641.06;;;18.41;68.11
47716;BME280;33476;50.984;3.538;2023-08-30T05:55:47;100630.34;;;18.43;68.09
47716;BME280;33476;50.984;3.538;2023-08-30T05:58:12;100630.81;;;18.48;67.74
47716;BME280;33476;50.984;3.538;2023-08-30T06:00:40;100636.81;;;18.50;67.89
47716;BME280;33476;50.984;3.538;2023-08-30T06:03:05;100631.38;;;18.51;67.99
47716;BME280;33476;50.984;3.538;2023-08-30T06:05:31;100632.81;;;18.56;67.74
47716;BME280;33476;50.984;3.538;2023-08-30T06:07:56;100636.75;;;18.61;67.97
47716;BME280;33476;50.984;3.538;2023-08-30T06:10:22;100639.88;;;18.66;67.64
47716;BME280;33476;50.984;3.538;2023-08-30T06:12:48;100636.72;;;18.72;67.81
47716;BME280;33476;50.984;3.538;2023-08-30T06:15:13;100640.44;;;18.70;67.76
47716;BME280;33476;50.984;3.538;2023-08-30T06:17:39;100642.25;;;18.69;67.46
47716;BME280;33476;50.984;3.538;2023-08-30T06:20:04;100648.38;;;18.70;67.24
47716;BME280;33476;50.984;3.538;2023-08-30T06:22:30;100635.56;;;18.65;67.77
47716;BME280;33476;50.984;3.538;2023-08-30T06:24:55;100648.28;;;18.71;67.49
47716;BME280;33476;50.984;3.538;2023-08-30T06:27:21;100654.13;;;18.75;67.45
47716;BME280;33476;50.984;3.538;2023-08-30T06:29:46;100648.13;;;18.73;67.58
47716;BME280;33476;50.984;3.538;2023-08-30T06:32:11;100646.19;;;18.75;67.51
47716;BME280;33476;50.984;3.538;2023-08-30T06:34:37;100650.13;;;18.80;67.50
47716;BME280;33476;50.984;3.538;2023-08-30T06:37:02;100654.03;;;18.86;67.15
47716;BME280;33476;50.984;3.538;2023-08-30T06:39:35;100654.91;;;18.87;67.09
47716;BME280;33476;50.984;3.538;2023-08-30T06:42:02;100659.34;;;18.86;67.31
47716;BME280;33476;50.984;3.538;2023-08-30T06:44:27;100655.75;;;18.87;67.27
47716;BME280;33476;50.984;3.538;2023-08-30T06:46:53;100666.06;;;18.90;67.44
47716;BME280;33476;50.984;3.538;2023-08-30T06:49:19;100667.03;;;18.89;67.41
47716;BME280;33476;50.984;3.538;2023-08-30T06:51:45;100659.66;;;18.93;67.27
47716;BME280;33476;50.984;3.538;2023-08-30T06:54:10;100662.16;;;18.94;67.66
47716;BME280;33476;50.984;3.538;2023-08-30T06:56:35;100665.41;;;18.98;67.73
47716;BME280;33476;50.984;3.538;2023-08-30T06:59:01;100662.31;;;18.93;68.10
47716;BME280;33476;50.984;3.538;2023-08-30T07:01:26;100663.97;;;18.94;68.45
47716;BME280;33476;50.984;3.538;2023-08-30T07:03:51;100662.31;;;18.93;68.59
47716;BME280;33476;50.984;3.538;2023-08-30T07:06:18;100654.00;;;18.97;68.59
47716;BME280;33476;50.984;3.538;2023-08-30T07:08:43;100665.72;;;19.04;68.10
47716;BME280;33476;50.984;3.538;2023-08-30T07:11:08;100666.75;;;19.13;67.81
47716;BME280;33476;50.984;3.538;2023-08-30T07:13:34;100661.63;;;19.21;67.43
47716;BME280;33476;50.984;3.538;2023-08-30T07:15:59;100659.41;;;19.26;67.50
47716;BME280;33476;50.984;3.538;2023-08-30T07:18:25;100646.47;;;19.33;67.65
47716;BME280;33476;50.984;3.538;2023-08-30T07:20:50;100652.91;;;19.40;68.21
47716;BME280;33476;50.984;3.538;2023-08-30T07:23:15;100643.84;;;19.43;68.12
47716;BME280;33476;50.984;3.538;2023-08-30T07:25:41;100652.94;;;19.50;67.74
47716;BME280;33476;50.984;3.538;2023-08-30T07:28:06;100654.94;;;19.57;68.22
47716;BME280;33476;50.984;3.538;2023-08-30T07:30:32;100659.56;;;19.65;68.72
47716;BME280;33476;50.984;3.538;2023-08-30T07:32:57;100661.81;;;19.70;68.99
47716;BME280;33476;50.984;3.538;2023-08-30T07:35:23;100660.44;;;19.75;69.28
47716;BME280;33476;50.984;3.538;2023-08-30T07:37:48;100664.34;;;19.81;69.23
47716;BME280;33476;50.984;3.538;2023-08-30T07:40:14;100659.50;;;19.86;69.23
47716;BME280;33476;50.984;3.538;2023-08-30T07:42:39;100657.94;;;19.93;69.24
47716;BME280;33476;50.984;3.538;2023-08-30T07:45:05;100667.16;;;19.99;69.25
47716;BME280;33476;50.984;3.538;2023-08-30T07:47:30;100668.00;;;19.99;69.17
47716;BME280;33476;50.984;3.538;2023-08-30T07:49:56;100664.22;;;20.02;68.78
47716;BME280;33476;50.984;3.538;2023-08-30T07:52:21;100662.00;;;20.07;68.76
47716;BME280;33476;50.984;3.538;2023-08-30T07:54:47;100669.56;;;20.11;68.50
47716;BME280;33476;50.984;3.538;2023-08-30T07:57:12;100665.78;;;20.14;69.12
47716;BME280;33476;50.984;3.538;2023-08-30T07:59:38;100657.53;;;20.17;69.29
47716;BME280;33476;50.984;3.538;2023-08-30T08:02:04;100653.66;;;20.21;69.02
47716;BME280;33476;50.984;3.538;2023-08-30T08:04:31;100656.00;;;20.24;68.93
47716;BME280;33476;50.984;3.538;2023-08-30T08:06:57;100657.00;;;20.23;68.30
47716;BME280;33476;50.984;3.538;2023-08-30T08:09:23;100662.28;;;20.23;68.38
47716;BME280;33476;50.984;3.538;2023-08-30T08:11:49;100673.44;;;20.27;68.13
47716;BME280;33476;50.984;3.538;2023-08-30T08:14:14;100671.63;;;20.27;68.18
47716;BME280;33476;50.984;3.538;2023-08-30T08:16:40;100672.34;;;20.29;67.87
47716;BME280;33476;50.984;3.538;2023-08-30T08:19:05;100676.81;;;20.29;67.56
47716;BME280;33476;50.984;3.538;2023-08-30T08:21:32;100674.19;;;20.29;67.11
47716;BME280;33476;50.984;3.538;2023-08-30T08:23:58;100672.34;;;20.29;66.72
47716;BME280;33476;50.984;3.538;2023-08-30T08:26:23;100673.88;;;20.32;66.60
47716;BME280;33476;50.984;3.538;2023-08-30T08:28:49;100665.38;;;20.38;66.55
47716;BME280;33476;50.984;3.538;2023-08-30T08:31:14;100670.00;;;20.45;66.12
47716;BME280;33476;50.984;3.538;2023-08-30T08:33:40;100667.06;;;20.48;66.06
47716;BME280;33476;50.984;3.538;2023-08-30T08:36:05;100671.13;;;20.53;65.77
47716;BME280;33476;50.984;3.538;2023-08-30T08:38:30;100670.84;;;20.56;65.39
47716;BME280;33476;50.984;3.538;2023-08-30T08:41:05;100676.81;;;20.58;65.45
47716;BME280;33476;50.984;3.538;2023-08-30T08:43:32;100673.06;;;20.70;65.00
47716;BME280;33476;50.984;3.538;2023-08-30T08:46:02;100675.00;;;20.78;64.52
47716;BME280;33476;50.984;3.538;2023-08-30T08:48:33;100672.72;;;20.92;63.56
47716;BME280;33476;50.984;3.538;2023-08-30T08:51:03;100689.16;;;21.06;63.52
47716;BME280;33476;50.984;3.538;2023-08-30T08:53:28;100678.81;;;21.12;62.77
47716;BME280;33476;50.984;3.538;2023-08-30T08:55:54;100675.28;;;21.21;62.58
47716;BME280;33476;50.984;3.538;2023-08-30T08:58:21;100671.78;;;21.30;62.08
47716;BME280;33476;50.984;3.538;2023-08-30T09:00:47;100675.22;;;21.41;61.75
47716;BME280;33476;50.984;3.538;2023-08-30T09:03:13;100678.66;;;21.51;61.22
47716;BME280;33476;50.984;3.538;2023-08-30T09:05:38;100673.44;;;21.59;60.45
47716;BME280;33476;50.984;3.538;2023-08-30T09:08:05;100674.53;;;21.66;59.53
47716;BME280;33476;50.984;3.538;2023-08-30T09:10:34;100689.22;;;21.70;58.78
47716;BME280;33476;50.984;3.538;2023-08-30T09:12:59;100688.47;;;21.78;59.04
47716;BME280;33476;50.984;3.538;2023-08-30T09:15:35;100695.31;;;21.80;58.38
47716;BME280;33476;50.984;3.538;2023-08-30T09:18:03;100701.16;;;21.84;57.34
47716;BME280;33476;50.984;3.538;2023-08-30T09:20:28;100703.53;;;21.87;56.83
47716;BME280;33476;50.984;3.538;2023-08-30T09:22:54;100723.06;;;21.96;56.57
47716;BME280;33476;50.984;3.538;2023-08-30T09:25:26;100718.59;;;21.96;55.94
47716;BME280;33476;50.984;3.538;2023-08-30T09:27:59;100718.75;;;21.95;55.63
47716;BME280;33476;50.984;3.538;2023-08-30T09:30:24;100717.16;;;22.02;55.09
47716;BME280;33476;50.984;3.538;2023-08-30T09:32:50;100708.31;;;22.11;54.59
47716;BME280;33476;50.984;3.538;2023-08-30T09:35:16;100708.84;;;22.14;54.25
47716;BME280;33476;50.984;3.538;2023-08-30T09:37:44;100707.56;;;22.19;53.63
47716;BME280;33476;50.984;3.538;2023-08-30T09:40:10;100713.09;;;22.25;52.67
47716;BME280;33476;50.984;3.538;2023-08-30T09:42:40;100710.66;;;22.32;52.50
47716;BME280;33476;50.984;3.538;2023-08-30T09:45:25;100715.53;;;22.36;51.33
47716;BME280;33476;50.984;3.538;2023-08-30T09:47:51;100713.94;;;22.43;51.49
47716;BME280;33476;50.984;3.538;2023-08-30T09:50:18;100709.13;;;22.47;51.22
47716;BME280;33476;50.984;3.538;2023-08-30T09:52:45;100712.72;;;22.56;51.50
47716;BME280;33476;50.984;3.538;2023-08-30T09:55:11;100722.44;;;22.65;51.48
47716;BME280;33476;50.984;3.538;2023-08-30T09:57:37;100713.16;;;22.69;50.99
47716;BME280;33476;50.984;3.538;2023-08-30T10:00:02;100715.97;;;22.67;50.54
47716;BME280;33476;50.984;3.538;2023-08-30T10:02:30;100711.72;;;22.57;49.18
47716;BME280;33476;50.984;3.538;2023-08-30T10:04:57;100710.53;;;22.51;49.26
47716;BME280;33476;50.984;3.538;2023-08-30T10:07:23;100717.59;;;22.60;48.82
47716;BME280;33476;50.984;3.538;2023-08-30T10:09:50;100713.16;;;22.69;48.73
47716;BME280;33476;50.984;3.538;2023-08-30T10:12:20;100707.75;;;22.79;47.54
47716;BME280;33476;50.984;3.538;2023-08-30T10:14:45;100714.16;;;22.86;47.17
47716;BME280;33476;50.984;3.538;2023-08-30T10:17:11;100718.16;;;22.90;47.56
47716;BME280;33476;50.984;3.538;2023-08-30T10:19:37;100713.38;;;22.93;47.31
47716;BME280;33476;50.984;3.538;2023-08-30T10:22:05;100714.50;;;22.91;46.38
47716;BME280;33476;50.984;3.538;2023-08-30T10:24:42;100723.88;;;22.95;47.04
47716;BME280;33476;50.984;3.538;2023-08-30T10:27:10;100720.59;;;23.01;45.95
47716;BME280;33476;50.984;3.538;2023-08-30T10:29:37;100712.78;;;23.08;45.94
47716;BME280;33476;50.984;3.538;2023-08-30T10:32:05;100713.81;;;23.15;46.05
47716;BME280;33476;50.984;3.538;2023-08-30T10:34:34;100717.31;;;23.15;45.26
47716;BME280;33476;50.984;3.538;2023-08-30T10:37:07;100716.19;;;23.18;45.61
47716;BME280;33476;50.984;3.538;2023-08-30T10:39:41;100726.06;;;23.25;45.98
47716;BME280;33476;50.984;3.538;2023-08-30T10:42:10;100724.59;;;23.31;45.51
47716;BME280;33476;50.984;3.538;2023-08-30T10:44:49;100725.47;;;23.40;44.54
47716;BME280;33476;50.984;3.538;2023-08-30T10:47:28;100730.66;;;23.49;44.20
47716;BME280;33476;50.984;3.538;2023-08-30T10:49:57;100723.88;;;23.55;44.27
47716;BME280;33476;50.984;3.538;2023-08-30T10:52:24;100730.19;;;23.54;44.15
47716;BME280;33476;50.984;3.538;2023-08-30T10:54:50;100728.31;;;23.46;44.66
47716;BME280;33476;50.984;3.538;2023-08-30T10:57:19;100735.78;;;23.35;44.16
47716;BME280;33476;50.984;3.538;2023-08-30T11:02:35;100736.72;;;23.25;43.87
47716;BME280;33476;50.984;3.538;2023-08-30T11:05:01;100730.91;;;23.30;44.27
47716;BME280;33476;50.984;3.538;2023-08-30T11:07:28;100738.78;;;23.40;44.80
47716;BME280;33476;50.984;3.538;2023-08-30T11:09:54;100736.00;;;23.49;44.59
47716;BME280;33476;50.984;3.538;2023-08-30T11:12:20;100736.44;;;23.63;43.78
47716;BME280;33476;50.984;3.538;2023-08-30T11:14:49;100725.31;;;23.67;43.86
47716;BME280;33476;50.984;3.538;2023-08-30T11:17:18;100724.50;;;23.75;44.46
47716;BME280;33476;50.984;3.538;2023-08-30T11:19:44;100725.38;;;23.84;44.61
47716;BME280;33476;50.984;3.538;2023-08-30T11:22:12;100732.00;;;23.79;44.48
47716;BME280;33476;50.984;3.538;2023-08-30T11:24:37;100731.81;;;23.73;44.84
47716;BME280;33476;50.984;3.538;2023-08-30T11:27:03;100716.50;;;23.75;44.80
47716;BME280;33476;50.984;3.538;2023-08-30T11:29:29;100724.00;;;23.79;45.18
47716;BME280;33476;50.984;3.538;2023-08-30T11:31:54;100733.00;;;23.78;44.14
47716;BME280;33476;50.984;3.538;2023-08-30T11:34:20;100735.00;;;23.76;44.13
47716;BME280;33476;50.984;3.538;2023-08-30T11:36:50;100734.63;;;23.71;44.15
47716;BME280;33476;50.984;3.538;2023-08-30T11:39:18;100735.47;;;23.72;44.63
47716;BME280;33476;50.984;3.538;2023-08-30T11:41:44;100736.50;;;23.79;44.52
47716;BME280;33476;50.984;3.538;2023-08-30T11:44:10;100738.69;;;23.84;44.42
47716;BME280;33476;50.984;3.538;2023-08-30T11:46:35;100742.91;;;23.94;44.91
47716;BME280;33476;50.984;3.538;2023-08-30T11:49:00;100734.25;;;24.00;44.72
47716;BME280;33476;50.984;3.538;2023-08-30T11:51:28;100738.75;;;24.00;44.26
47716;BME280;33476;50.984;3.538;2023-08-30T11:53:55;100740.88;;;23.96;44.82
47716;BME280;33476;50.984;3.538;2023-08-30T11:56:21;100744.22;;;23.98;44.88
47716;BME280;33476;50.984;3.538;2023-08-30T11:58:46;100745.75;;;24.01;44.59
47716;BME280;33476;50.984;3.538;2023-08-30T12:01:12;100748.56;;;23.99;44.53
47716;BME280;33476;50.984;3.538;2023-08-30T12:03:38;100743.38;;;23.98;44.01
47716;BME280;33476;50.984;3.538;2023-08-30T12:06:09;100751.38;;;23.90;43.86
47716;BME280;33476;50.984;3.538;2023-08-30T12:08:35;100753.00;;;23.82;43.80
47716;BME280;33476;50.984;3.538;2023-08-30T12:11:01;100760.31;;;23.72;43.77
47716;BME280;33476;50.984;3.538;2023-08-30T12:13:31;100760.75;;;23.60;44.07
47716;BME280;33476;50.984;3.538;2023-08-30T12:15:58;100755.66;;;23.48;44.60
47716;BME280;33476;50.984;3.538;2023-08-30T12:18:33;100760.16;;;23.48;44.81
47716;BME280;33476;50.984;3.538;2023-08-30T12:21:03;100760.00;;;23.49;44.76
47716;BME280;33476;50.984;3.538;2023-08-30T12:23:30;100761.34;;;23.53;44.69
47716;BME280;33476;50.984;3.538;2023-08-30T12:26:07;100764.44;;;23.41;44.67
47716;BME280;33476;50.984;3.538;2023-08-30T12:28:34;100764.94;;;23.36;44.65
47716;BME280;33476;50.984;3.538;2023-08-30T12:31:00;100759.06;;;23.33;45.63
47716;BME280;33476;50.984;3.538;2023-08-30T12:33:26;100774.38;;;23.31;45.45
47716;BME280;33476;50.984;3.538;2023-08-30T12:35:53;100775.22;;;23.31;45.71
47716;BME280;33476;50.984;3.538;2023-08-30T12:38:18;100777.53;;;23.26;45.46
47716;BME280;33476;50.984;3.538;2023-08-30T12:40:48;100781.44;;;23.14;45.38
47716;BME280;33476;50.984;3.538;2023-08-30T12:43:15;100790.41;;;23.13;45.64
47716;BME280;33476;50.984;3.538;2023-08-30T12:45:41;100787.25;;;23.09;45.39
47716;BME280;33476;50.984;3.538;2023-08-30T12:48:08;100793.53;;;23.08;46.12
47716;BME280;33476;50.984;3.538;2023-08-30T12:50:38;100798.56;;;23.11;46.02
47716;BME280;33476;50.984;3.538;2023-08-30T12:53:04;100787.91;;;23.11;45.34
47716;BME280;33476;50.984;3.538;2023-08-30T12:55:30;100795.28;;;23.17;45.55
47716;BME280;33476;50.984;3.538;2023-08-30T12:57:56;100795.81;;;23.21;45.09